Terminal Aerodrome Forecast
Issued by NWS Charleston, WV

Home | Current Version | Previous Version | Text Only | Print | Product List | Glossary On
Versions: 1 2 3 4 5 6 7 8 9 10 11 12 13 14 15 16 17 18 19 20 21 22 23 24
000
FTUS41 KRLX 291130
TAFPKB
TAF
KPKB 291130Z 2912/3012 19006KT P6SM SCT060 OVC080
     FM291500 21006KT P6SM OVC060
     FM291800 22004KT P6SM VCTS SCT040CB
     FM292000 22004KT P6SM SCT150=

USA.gov is the U.S. government's official web portal to all federal, state and local government web resources and services.